Time;durP1;ratioP1;P1;durP2;ratioP2;P2;SDS_P1;SDS_P2;PMS_P1;PMS_P2;Temp;Humidity;BMP_temperature;BMP_pressure;BME280_temperature;BME280_humidity;BME280_pressure;Samples;Min_cycle;Max_cycle;Signal;HPM_P1;HPM_P2
2023/11/16 00:00:32;;;;;;;12.40;6.00;;;;;;;-128.00;-1.00;-1.00;106975;1249;1002027;-60
2023/11/16 00:03:01;;;;;;;10.20;8.20;;;;;;;-128.00;-1.00;-1.00;106930;1250;1012759;-57
2023/11/16 00:05:31;;;;;;;10.70;7.80;;;;;;;-128.00;-1.00;-1.00;106600;1250;1013313;-57
2023/11/16 00:07:59;;;;;;;11.40;8.20;;;;;;;-128.00;-1.00;-1.00;106910;1250;1010555;-57
2023/11/16 00:10:27;;;;;;;6.90;6.20;;;;;;;-128.00;-1.00;-1.00;106936;1250;1010871;-56
2023/11/16 00:12:55;;;;;;;8.40;7.30;;;;;;;-128.00;-1.00;-1.00;106962;1250;1002685;-58
2023/11/16 00:15:23;;;;;;;8.70;7.70;;;;;;;-128.00;-1.00;-1.00;106915;1250;1012713;-59
2023/11/16 00:17:51;;;;;;;9.20;8.10;;;;;;;-128.00;-1.00;-1.00;106892;1253;1012262;-58
2023/11/16 00:20:19;;;;;;;10.90;7.60;;;;;;;-128.00;-1.00;-1.00;106760;1250;1002267;-58
2023/11/16 00:22:47;;;;;;;10.00;8.80;;;;;;;-128.00;-1.00;-1.00;106637;1250;1002390;-58
2023/11/16 00:25:16;;;;;;;19.60;13.80;;;;;;;-128.00;-1.00;-1.00;106808;1250;1012642;-60
2023/11/16 00:27:44;;;;;;;13.60;12.10;;;;;;;-128.00;-1.00;-1.00;106852;1250;1013733;-58
2023/11/16 00:30:15;;;;;;;9.30;7.10;;;;;;;-128.00;-1.00;-1.00;106898;1249;1002504;-59
2023/11/16 00:32:43;;;;;;;14.90;13.30;;;;;;;-128.00;-1.00;-1.00;106745;1249;1010274;-59
2023/11/16 00:35:10;;;;;;;11.10;9.20;;;;;;;-128.00;-1.00;-1.00;106721;1252;1002450;-58
2023/11/16 00:37:38;;;;;;;20.10;8.70;;;;;;;-128.00;-1.00;-1.00;106388;1254;1002729;-58
2023/11/16 00:40:07;;;;;;;6.60;6.00;;;;;;;-128.00;-1.00;-1.00;106665;1254;1002397;-58
2023/11/16 00:42:36;;;;;;;9.90;7.50;;;;;;;-128.00;-1.00;-1.00;106472;1254;1012438;-58
2023/11/16 00:45:06;;;;;;;25.90;21.40;;;;;;;-128.00;-1.00;-1.00;106627;1254;1010521;-59
2023/11/16 00:47:33;;;;;;;8.80;7.40;;;;;;;-128.00;-1.00;-1.00;106528;1254;1011449;-61
2023/11/16 00:50:01;;;;;;;8.80;7.20;;;;;;;-128.00;-1.00;-1.00;106651;1254;1002217;-60
2023/11/16 00:52:28;;;;;;;34.90;31.20;;;;;;;-128.00;-1.00;-1.00;106692;1256;1002135;-57
2023/11/16 00:54:56;;;;;;;9.20;8.30;;;;;;;-128.00;-1.00;-1.00;106745;1254;1002293;-58
2023/11/16 00:57:24;;;;;;;28.20;13.90;;;;;;;-128.00;-1.00;-1.00;106716;1254;1002338;-59
2023/11/16 00:59:52;;;;;;;29.30;20.20;;;;;;;-128.00;-1.00;-1.00;106721;1254;1010465;-58
2023/11/16 01:02:21;;;;;;;11.30;9.70;;;;;;;-128.00;-1.00;-1.00;106654;1255;1002249;-59
2023/11/16 01:04:48;;;;;;;18.90;14.00;;;;;;;-128.00;-1.00;-1.00;106426;1254;1012910;-58
2023/11/16 01:07:16;;;;;;;7.20;5.80;;;;;;;-128.00;-1.00;-1.00;106476;1254;1002534;-58
2023/11/16 01:09:43;;;;;;;9.70;8.30;;;;;;;-128.00;-1.00;-1.00;106561;1251;1002772;-58
2023/11/16 01:12:15;;;;;;;11.50;6.90;;;;;;;-128.00;-1.00;-1.00;106838;1251;1002383;-57
2023/11/16 01:14:44;;;;;;;13.80;9.50;;;;;;;-128.00;-1.00;-1.00;106865;1252;1013707;-58
2023/11/16 01:17:18;;;;;;;18.90;17.00;;;;;;;-128.00;-1.00;-1.00;106694;1255;1012529;-58
2023/11/16 01:19:47;;;;;;;31.70;28.60;;;;;;;-128.00;-1.00;-1.00;106892;1251;1012002;-58
2023/11/16 01:22:15;;;;;;;10.20;7.80;;;;;;;-128.00;-1.00;-1.00;106852;1251;1010490;-58
2023/11/16 01:24:45;;;;;;;9.40;8.40;;;;;;;-128.00;-1.00;-1.00;106872;1251;1002229;-62
2023/11/16 01:27:18;;;;;;;16.70;12.20;;;;;;;-128.00;-1.00;-1.00;106896;1250;1012730;-57
2023/11/16 01:29:46;;;;;;;10.90;8.60;;;;;;;-128.00;-1.00;-1.00;106841;1251;1013234;-58
2023/11/16 01:32:13;;;;;;;12.10;10.10;;;;;;;-128.00;-1.00;-1.00;106776;1251;1002353;-59
2023/11/16 01:34:42;;;;;;;;;;;;;;;-128.00;-1.00;-1.00;106899;1251;1009979;-61
2023/11/16 01:37:10;;;;;;;22.10;15.60;;;;;;;-128.00;-1.00;-1.00;106919;1253;1010677;-59
2023/11/16 01:39:41;;;;;;;50.20;31.10;;;;;;;-128.00;-1.00;-1.00;106886;1252;1002749;-60
2023/11/16 01:42:09;;;;;;;20.10;13.40;;;;;;;-128.00;-1.00;-1.00;106698;1254;1012751;-60
2023/11/16 01:44:38;;;;;;;16.30;11.70;;;;;;;-128.00;-1.00;-1.00;106471;1254;1012592;-58
2023/11/16 01:47:08;;;;;;;11.10;9.20;;;;;;;-128.00;-1.00;-1.00;106630;1254;1009477;-60
2023/11/16 01:49:37;;;;;;;13.70;10.60;;;;;;;-128.00;-1.00;-1.00;106363;1254;1011733;-59
2023/11/16 01:52:05;;;;;;;12.40;10.70;;;;;;;-128.00;-1.00;-1.00;106446;1256;1002457;-60
2023/11/16 01:54:34;;;;;;;23.20;10.10;;;;;;;-128.00;-1.00;-1.00;106470;1255;1013152;-59
2023/11/16 01:57:03;;;;;;;;;;;;;;;-128.00;-1.00;-1.00;106538;1255;1012635;-59
2023/11/16 01:59:33;;;;;;;13.70;10.60;;;;;;;-128.00;-1.00;-1.00;106503;1256;1010286;-60
2023/11/16 02:02:04;;;;;;;11.90;7.10;;;;;;;-128.00;-1.00;-1.00;106456;1254;1010504;-60
2023/11/16 02:04:34;;;;;;;6.10;5.00;;;;;;;-128.00;-1.00;-1.00;106548;1256;1012632;-60
2023/11/16 02:07:04;;;;;;;7.60;4.60;;;;;;;-128.00;-1.00;-1.00;106464;1256;1011805;-60
2023/11/16 02:09:32;;;;;;;15.20;8.40;;;;;;;-128.00;-1.00;-1.00;106479;1255;1012780;-60
2023/11/16 02:12:00;;;;;;;8.80;7.10;;;;;;;-128.00;-1.00;-1.00;106660;1254;1002614;-63
2023/11/16 02:14:28;;;;;;;;;;;;;;;-128.00;-1.00;-1.00;106892;1252;1011206;-59
2023/11/16 02:16:56;;;;;;;6.90;6.20;;;;;;;-128.00;-1.00;-1.00;106903;1253;1002353;-60
2023/11/16 02:19:31;;;;;;;10.30;9.40;;;;;;;-128.00;-1.00;-1.00;106737;1251;1012817;-60
2023/11/16 02:22:01;;;;;;;92.30;74.20;;;;;;;-128.00;-1.00;-1.00;106820;1253;1013326;-59
2023/11/16 02:24:30;;;;;;;15.90;14.60;;;;;;;-128.00;-1.00;-1.00;106888;1252;1010074;-59
2023/11/16 02:26:57;;;;;;;15.00;13.40;;;;;;;-128.00;-1.00;-1.00;106715;1252;1011801;-59
2023/11/16 02:29:26;;;;;;;21.40;19.50;;;;;;;-128.00;-1.00;-1.00;106707;1252;1002878;-59
2023/11/16 02:31:53;;;;;;;;;;;;;;;-128.00;-1.00;-1.00;106855;1252;1012925;-59
2023/11/16 02:34:21;;;;;;;22.90;20.70;;;;;;;-128.00;-1.00;-1.00;106849;1252;1002140;-59
2023/11/16 02:36:49;;;;;;;311.50;176.60;;;;;;;-128.00;-1.00;-1.00;106731;1252;1002752;-60
2023/11/16 02:39:16;;;;;;;83.40;48.40;;;;;;;-128.00;-1.00;-1.00;106731;1253;1002631;-59
2023/11/16 02:41:45;;;;;;;131.30;67.80;;;;;;;-128.00;-1.00;-1.00;106926;1252;1002925;-59
2023/11/16 02:44:18;;;;;;;;;;;;;;;-128.00;-1.00;-1.00;106907;1252;1012872;-59
2023/11/16 02:46:46;;;;;;;32.10;24.00;;;;;;;-128.00;-1.00;-1.00;106900;1252;1012756;-59
2023/11/16 02:49:14;;;;;;;18.10;16.30;;;;;;;-128.00;-1.00;-1.00;106900;1251;1002999;-59
2023/11/16 02:51:42;;;;;;;92.00;62.40;;;;;;;-128.00;-1.00;-1.00;107120;1249;1002617;-60
2023/11/16 02:54:09;;;;;;;48.20;34.20;;;;;;;-128.00;-1.00;-1.00;107162;1249;1002605;-61
2023/11/16 02:56:38;;;;;;;72.60;47.90;;;;;;;-128.00;-1.00;-1.00;107086;1250;1002023;-60
2023/11/16 02:59:06;;;;;;;67.60;41.20;;;;;;;-128.00;-1.00;-1.00;107080;1249;1012797;-59
2023/11/16 03:01:34;;;;;;;30.60;27.30;;;;;;;-128.00;-1.00;-1.00;107104;1249;1002556;-62
2023/11/16 03:04:03;;;;;;;9.30;8.40;;;;;;;-128.00;-1.00;-1.00;107127;1249;1002609;-60
2023/11/16 03:06:31;;;;;;;26.60;24.10;;;;;;;-128.00;-1.00;-1.00;107115;1249;1013763;-60
2023/11/16 03:08:58;;;;;;;30.20;27.50;;;;;;;-128.00;-1.00;-1.00;107073;1250;1002807;-59
2023/11/16 03:11:27;;;;;;;69.40;60.40;;;;;;;-128.00;-1.00;-1.00;106969;1250;1002472;-58
2023/11/16 03:13:54;;;;;;;13.40;11.90;;;;;;;-128.00;-1.00;-1.00;107044;1249;1010103;-58
2023/11/16 03:16:22;;;;;;;19.00;17.10;;;;;;;-128.00;-1.00;-1.00;106929;1250;1001956;-60
2023/11/16 03:18:50;;;;;;;19.40;16.50;;;;;;;-128.00;-1.00;-1.00;107103;1254;1001966;-60
2023/11/16 03:21:18;;;;;;;35.60;28.00;;;;;;;-128.00;-1.00;-1.00;107057;1249;1012816;-59
2023/11/16 03:23:46;;;;;;;47.00;31.60;;;;;;;-128.00;-1.00;-1.00;107128;1249;1002832;-59
2023/11/16 03:26:13;;;;;;;81.10;66.50;;;;;;;-128.00;-1.00;-1.00;107016;1250;1002372;-59
2023/11/16 03:28:42;;;;;;;7.90;7.20;;;;;;;-128.00;-1.00;-1.00;106866;1250;1002100;-59
2023/11/16 03:31:12;;;;;;;13.40;12.10;;;;;;;-128.00;-1.00;-1.00;107104;1249;1012917;-59
2023/11/16 03:33:41;;;;;;;12.60;11.50;;;;;;;-128.00;-1.00;-1.00;107071;1250;1011972;-58
2023/11/16 03:36:10;;;;;;;28.00;21.20;;;;;;;-128.00;-1.00;-1.00;107028;1248;1012451;-58
2023/11/16 03:38:37;;;;;;;56.00;47.80;;;;;;;-128.00;-1.00;-1.00;107083;1248;1001987;-58
2023/11/16 03:41:05;;;;;;;8.10;7.40;;;;;;;-128.00;-1.00;-1.00;106924;1248;1002586;-59
2023/11/16 03:43:32;;;;;;;3.60;3.40;;;;;;;-128.00;-1.00;-1.00;107095;1248;1002227;-58
2023/11/16 03:46:00;;;;;;;7.90;7.10;;;;;;;-128.00;-1.00;-1.00;107116;1250;1002308;-57
2023/11/16 03:48:27;;;;;;;3.00;2.80;;;;;;;-128.00;-1.00;-1.00;106770;1248;1002960;-58
2023/11/16 03:50:55;;;;;;;7.80;7.20;;;;;;;-128.00;-1.00;-1.00;106725;1249;1002661;-57
2023/11/16 03:53:22;;;;;;;49.70;45.40;;;;;;;-128.00;-1.00;-1.00;106920;1249;1002480;-57
2023/11/16 03:55:51;;;;;;;45.10;40.30;;;;;;;-128.00;-1.00;-1.00;106935;1250;1002295;-58
2023/11/16 03:58:19;;;;;;;;;;;;;;;-128.00;-1.00;-1.00;106893;1250;1013211;-58
2023/11/16 04:00:48;;;;;;;10.90;9.70;;;;;;;-128.00;-1.00;-1.00;106922;1250;1013983;-58
2023/11/16 04:03:15;;;;;;;9.90;9.10;;;;;;;-128.00;-1.00;-1.00;106879;1250;1010210;-57
2023/11/16 04:05:43;;;;;;;5.40;4.60;;;;;;;-128.00;-1.00;-1.00;106934;1249;1002645;-58
2023/11/16 04:08:11;;;;;;;19.20;16.50;;;;;;;-128.00;-1.00;-1.00;106968;1252;1002516;-58
2023/11/16 04:10:38;;;;;;;46.90;32.30;;;;;;;-128.00;-1.00;-1.00;106900;1250;1002257;-59
2023/11/16 04:13:06;;;;;;;48.50;34.40;;;;;;;-128.00;-1.00;-1.00;106922;1249;1002080;-61
2023/11/16 04:15:34;;;;;;;47.70;30.60;;;;;;;-128.00;-1.00;-1.00;106966;1250;1001880;-60
2023/11/16 04:18:03;;;;;;;138.00;112.20;;;;;;;-128.00;-1.00;-1.00;106954;1250;1010553;-59
2023/11/16 04:20:31;;;;;;;27.60;22.80;;;;;;;-128.00;-1.00;-1.00;106924;1249;1012785;-59
2023/11/16 04:22:59;;;;;;;7.60;7.00;;;;;;;-128.00;-1.00;-1.00;106876;1250;1002282;-60
2023/11/16 04:25:28;;;;;;;18.40;16.00;;;;;;;-128.00;-1.00;-1.00;106908;1250;1002860;-59
2023/11/16 04:28:00;;;;;;;16.50;10.00;;;;;;;-128.00;-1.00;-1.00;107010;1250;1010082;-60
2023/11/16 04:30:28;;;;;;;37.90;26.20;;;;;;;-128.00;-1.00;-1.00;106962;1249;1011370;-57
2023/11/16 04:33:00;;;;;;;13.00;10.30;;;;;;;-128.00;-1.00;-1.00;106878;1255;1013202;-59
2023/11/16 04:35:28;;;;;;;26.90;22.50;;;;;;;-128.00;-1.00;-1.00;106868;1252;1011962;-57
2023/11/16 04:37:56;;;;;;;59.80;43.60;;;;;;;-128.00;-1.00;-1.00;106959;1250;1002680;-58
2023/11/16 04:40:24;;;;;;;16.90;12.40;;;;;;;-128.00;-1.00;-1.00;106934;1250;1001842;-61
2023/11/16 04:42:52;;;;;;;20.00;17.30;;;;;;;-128.00;-1.00;-1.00;106878;1250;1011154;-63
2023/11/16 04:45:20;;;;;;;11.60;7.50;;;;;;;-128.00;-1.00;-1.00;106939;1250;1002359;-58
2023/11/16 04:47:47;;;;;;;8.50;7.50;;;;;;;-128.00;-1.00;-1.00;106889;1250;1002497;-56
2023/11/16 04:50:16;;;;;;;16.00;13.20;;;;;;;-128.00;-1.00;-1.00;106795;1250;1002193;-57
2023/11/16 04:52:44;;;;;;;10.10;9.30;;;;;;;-128.00;-1.00;-1.00;106877;1250;1010211;-58
2023/11/16 04:55:12;;;;;;;8.60;7.90;;;;;;;-128.00;-1.00;-1.00;106865;1249;1002386;-60
2023/11/16 04:57:42;;;;;;;7.90;7.30;;;;;;;-128.00;-1.00;-1.00;106739;1250;1012681;-58
2023/11/16 05:00:13;;;;;;;15.70;14.10;;;;;;;-128.00;-1.00;-1.00;106899;1250;1012437;-58
2023/11/16 05:02:41;;;;;;;41.60;34.80;;;;;;;-128.00;-1.00;-1.00;106803;1250;1012727;-58
2023/11/16 05:05:09;;;;;;;19.00;16.00;;;;;;;-128.00;-1.00;-1.00;106931;1250;1002393;-59
2023/11/16 05:07:37;;;;;;;11.60;10.40;;;;;;;-128.00;-1.00;-1.00;106936;1250;1010854;-60
2023/11/16 05:10:07;;;;;;;4.80;4.40;;;;;;;-128.00;-1.00;-1.00;106949;1249;1001892;-58
2023/11/16 05:12:35;;;;;;;6.60;5.80;;;;;;;-128.00;-1.00;-1.00;106882;1250;1012675;-59
2023/11/16 05:15:03;;;;;;;11.40;10.20;;;;;;;-128.00;-1.00;-1.00;106615;1250;1002343;-58
2023/11/16 05:17:31;;;;;;;;;;;;;;;-128.00;-1.00;-1.00;106858;1249;1010546;-59
2023/11/16 05:19:58;;;;;;;2.20;2.10;;;;;;;-128.00;-1.00;-1.00;106890;1250;1002171;-59
2023/11/16 05:22:26;;;;;;;3.90;3.60;;;;;;;-128.00;-1.00;-1.00;106972;1250;1002192;-58
2023/11/16 05:24:53;;;;;;;5.30;4.90;;;;;;;-128.00;-1.00;-1.00;106664;1250;1001949;-57
2023/11/16 05:27:21;;;;;;;27.70;25.00;;;;;;;-128.00;-1.00;-1.00;106971;1250;1002231;-59
2023/11/16 05:29:49;;;;;;;10.60;8.40;;;;;;;-128.00;-1.00;-1.00;106887;1250;1002553;-59
2023/11/16 05:32:17;;;;;;;9.80;8.80;;;;;;;-128.00;-1.00;-1.00;106908;1250;1002419;-58
2023/11/16 05:34:45;;;;;;;28.90;18.20;;;;;;;-128.00;-1.00;-1.00;106600;1251;1012917;-58
2023/11/16 05:37:12;;;;;;;89.80;81.80;;;;;;;-128.00;-1.00;-1.00;106982;1250;1002465;-59
2023/11/16 05:39:40;;;;;;;209.50;110.10;;;;;;;-128.00;-1.00;-1.00;106873;1250;1002435;-58
2023/11/16 05:42:08;;;;;;;73.80;38.50;;;;;;;-128.00;-1.00;-1.00;106849;1249;1002074;-58
2023/11/16 05:44:36;;;;;;;27.00;18.30;;;;;;;-128.00;-1.00;-1.00;106903;1250;1011183;-58
2023/11/16 05:47:03;;;;;;;24.90;16.80;;;;;;;-128.00;-1.00;-1.00;106914;1250;1001988;-57
2023/11/16 05:49:31;;;;;;;42.80;38.60;;;;;;;-128.00;-1.00;-1.00;106921;1252;1002587;-58
2023/11/16 05:52:02;;;;;;;7.00;5.80;;;;;;;-128.00;-1.00;-1.00;106880;1251;1002873;-60
2023/11/16 05:54:29;;;;;;;10.60;7.90;;;;;;;-128.00;-1.00;-1.00;106856;1251;1010340;-57
2023/11/16 05:56:57;;;;;;;15.60;11.40;;;;;;;-128.00;-1.00;-1.00;106858;1251;1002355;-57
2023/11/16 05:59:25;;;;;;;8.90;8.10;;;;;;;-128.00;-1.00;-1.00;106768;1251;1003041;-59
2023/11/16 06:01:52;;;;;;;10.00;9.10;;;;;;;-128.00;-1.00;-1.00;106472;1251;1002396;-61
2023/11/16 06:04:22;;;;;;;8.80;8.00;;;;;;;-128.00;-1.00;-1.00;106756;1251;1002371;-58
2023/11/16 06:06:50;;;;;;;9.60;8.00;;;;;;;-128.00;-1.00;-1.00;106792;1251;1010771;-60
2023/11/16 06:09:17;;;;;;;17.70;15.90;;;;;;;-128.00;-1.00;-1.00;106922;1251;1002221;-60
2023/11/16 06:11:45;;;;;;;9.10;7.30;;;;;;;-128.00;-1.00;-1.00;106944;1251;1002235;-60
2023/11/16 06:14:14;;;;;;;3.90;3.60;;;;;;;-128.00;-1.00;-1.00;106914;1251;1012522;-59
2023/11/16 06:16:44;;;;;;;;;;;;;;;-128.00;-1.00;-1.00;106909;1250;1013063;-58
2023/11/16 06:19:13;;;;;;;4.80;4.40;;;;;;;-128.00;-1.00;-1.00;106915;1251;1009929;-58
2023/11/16 06:21:41;;;;;;;6.30;5.80;;;;;;;-128.00;-1.00;-1.00;106923;1251;1011511;-58
2023/11/16 06:24:09;;;;;;;8.40;7.80;;;;;;;-128.00;-1.00;-1.00;106576;1251;1002905;-59
2023/11/16 06:26:37;;;;;;;5.70;5.30;;;;;;;-128.00;-1.00;-1.00;106885;1251;1002237;-57
2023/11/16 06:29:06;;;;;;;13.70;5.80;;;;;;;-128.00;-1.00;-1.00;106900;1251;1002031;-57
2023/11/16 06:31:34;;;;;;;8.00;7.30;;;;;;;-128.00;-1.00;-1.00;106926;1251;1010471;-58
2023/11/16 06:34:01;;;;;;;7.90;7.30;;;;;;;-128.00;-1.00;-1.00;106904;1251;1002552;-59
2023/11/16 06:36:29;;;;;;;9.60;8.70;;;;;;;-128.00;-1.00;-1.00;106584;1250;1002833;-58
2023/11/16 06:38:57;;;;;;;12.30;10.80;;;;;;;-128.00;-1.00;-1.00;106872;1251;1002474;-57
2023/11/16 06:41:25;;;;;;;7.60;6.90;;;;;;;-128.00;-1.00;-1.00;106903;1250;1012443;-57
2023/11/16 06:43:54;;;;;;;7.30;6.40;;;;;;;-128.00;-1.00;-1.00;106579;1251;1002625;-57
2023/11/16 06:46:22;;;;;;;9.40;8.60;;;;;;;-128.00;-1.00;-1.00;106925;1250;1011020;-57
2023/11/16 06:48:50;;;;;;;6.30;5.70;;;;;;;-128.00;-1.00;-1.00;107016;1249;1001825;-58
2023/11/16 06:51:18;;;;;;;8.50;7.60;;;;;;;-128.00;-1.00;-1.00;106895;1253;1012519;-58
2023/11/16 06:53:46;;;;;;;11.00;6.50;;;;;;;-128.00;-1.00;-1.00;106728;1254;1002085;-58
2023/11/16 06:56:14;;;;;;;9.10;4.20;;;;;;;-128.00;-1.00;-1.00;106378;1254;1002592;-57
2023/11/16 06:58:42;;;;;;;15.70;10.60;;;;;;;-128.00;-1.00;-1.00;106694;1254;1011800;-58
2023/11/16 07:01:10;;;;;;;6.10;5.60;;;;;;;-128.00;-1.00;-1.00;106587;1254;1002291;-59
2023/11/16 07:03:37;;;;;;;19.80;14.70;;;;;;;-128.00;-1.00;-1.00;106614;1254;1002742;-59
2023/11/16 07:06:06;;;;;;;24.10;18.60;;;;;;;-128.00;-1.00;-1.00;106655;1253;1002237;-60
2023/11/16 07:08:34;;;;;;;18.30;16.40;;;;;;;-128.00;-1.00;-1.00;106599;1254;1010579;-59
2023/11/16 07:11:01;;;;;;;31.10;28.30;;;;;;;-128.00;-1.00;-1.00;106613;1254;1002642;-62
2023/11/16 07:13:28;;;;;;;8.60;7.90;;;;;;;-128.00;-1.00;-1.00;106598;1256;1002562;-59
2023/11/16 07:15:57;;;;;;;35.20;14.10;;;;;;;-128.00;-1.00;-1.00;106633;1258;1002262;-59
2023/11/16 07:18:24;;;;;;;21.40;19.60;;;;;;;-128.00;-1.00;-1.00;106594;1254;1013120;-58
2023/11/16 07:20:52;;;;;;;28.00;25.30;;;;;;;-128.00;-1.00;-1.00;106621;1254;1002207;-58
2023/11/16 07:23:20;;;;;;;23.20;19.60;;;;;;;-128.00;-1.00;-1.00;106426;1254;1002572;-59
2023/11/16 07:25:49;;;;;;;40.00;34.00;;;;;;;-128.00;-1.00;-1.00;106587;1255;1002567;-58
2023/11/16 07:28:17;;;;;;;16.70;15.00;;;;;;;-128.00;-1.00;-1.00;106551;1255;1013059;-58
2023/11/16 07:30:45;;;;;;;29.80;26.70;;;;;;;-128.00;-1.00;-1.00;106814;1250;1012682;-58
2023/11/16 07:33:15;;;;;;;14.20;12.00;;;;;;;-128.00;-1.00;-1.00;107008;1250;1002856;-58
2023/11/16 07:35:45;;;;;;;47.40;43.00;;;;;;;-128.00;-1.00;-1.00;106939;1250;1011557;-58
2023/11/16 07:38:13;;;;;;;34.40;27.80;;;;;;;-128.00;-1.00;-1.00;106984;1250;1013169;-60
2023/11/16 07:40:43;;;;;;;19.50;15.10;;;;;;;-128.00;-1.00;-1.00;106892;1254;1002273;-60
2023/11/16 07:43:11;;;;;;;62.20;37.40;;;;;;;-128.00;-1.00;-1.00;107016;1250;1012547;-60
2023/11/16 07:45:39;;;;;;;45.50;34.50;;;;;;;-128.00;-1.00;-1.00;106954;1250;1002407;-58
2023/11/16 07:48:09;;;;;;;17.60;15.70;;;;;;;-128.00;-1.00;-1.00;106694;1250;1003356;-58
2023/11/16 07:50:37;;;;;;;15.80;14.20;;;;;;;-128.00;-1.00;-1.00;106644;1251;1013182;-58
2023/11/16 07:53:10;;;;;;;38.10;32.00;;;;;;;-128.00;-1.00;-1.00;106943;1250;1002709;-58
2023/11/16 07:55:37;;;;;;;23.70;20.30;;;;;;;-128.00;-1.00;-1.00;106973;1250;1012611;-59
2023/11/16 07:58:06;;;;;;;35.50;32.00;;;;;;;-128.00;-1.00;-1.00;106770;1250;1002270;-59
2023/11/16 08:00:44;;;;;;;44.30;40.40;;;;;;;-128.00;-1.00;-1.00;107007;1250;1010783;-59
2023/11/16 08:06:02;;;;;;;55.70;39.90;;;;;;;-128.00;-1.00;-1.00;106925;1256;1012553;-58
2023/11/16 08:08:31;;;;;;;26.60;20.60;;;;;;;-128.00;-1.00;-1.00;106981;1250;1013494;-59
2023/11/16 08:10:58;;;;;;;26.90;22.60;;;;;;;-128.00;-1.00;-1.00;106973;1250;1009974;-59
2023/11/16 08:13:26;;;;;;;13.00;10.70;;;;;;;-128.00;-1.00;-1.00;107017;1250;1002530;-61
2023/11/16 08:15:56;;;;;;;8.50;7.70;;;;;;;-128.00;-1.00;-1.00;106993;1249;1003969;-62
2023/11/16 08:18:24;;;;;;;9.30;8.20;;;;;;;-128.00;-1.00;-1.00;106926;1250;1012924;-58
2023/11/16 08:20:53;;;;;;;10.00;8.40;;;;;;;-128.00;-1.00;-1.00;106979;1250;1012542;-60
2023/11/16 08:23:22;;;;;;;25.30;23.00;;;;;;;-128.00;-1.00;-1.00;106979;1250;1010708;-62
2023/11/16 08:25:53;;;;;;;15.40;14.00;;;;;;;-128.00;-1.00;-1.00;106977;1250;1011813;-61
2023/11/16 08:28:21;;;;;;;16.50;13.90;;;;;;;-128.00;-1.00;-1.00;107048;1250;1012322;-60
2023/11/16 08:30:53;;;;;;;27.20;22.10;;;;;;;-128.00;-1.00;-1.00;106976;1250;1002962;-60
2023/11/16 08:33:20;;;;;;;43.70;33.00;;;;;;;-128.00;-1.00;-1.00;106982;1249;1013229;-61
2023/11/16 08:35:48;;;;;;;42.90;31.40;;;;;;;-128.00;-1.00;-1.00;106996;1251;1002382;-61
2023/11/16 08:38:16;;;;;;;10.90;10.00;;;;;;;-128.00;-1.00;-1.00;106991;1250;1002490;-59
2023/11/16 08:40:43;;;;;;;11.70;10.50;;;;;;;-128.00;-1.00;-1.00;106996;1250;1004044;-60
2023/11/16 08:43:11;;;;;;;19.00;12.60;;;;;;;-128.00;-1.00;-1.00;106951;1249;1004091;-61
2023/11/16 08:45:39;;;;;;;15.90;12.60;;;;;;;-128.00;-1.00;-1.00;107014;1250;1003095;-61
2023/11/16 08:48:08;;;;;;;9.50;6.30;;;;;;;-128.00;-1.00;-1.00;106967;1250;1009502;-61
2023/11/16 08:50:42;;;;;;;39.50;35.70;;;;;;;-128.00;-1.00;-1.00;106954;1251;1011162;-58
2023/11/16 08:53:12;;;;;;;14.60;13.30;;;;;;;-128.00;-1.00;-1.00;106667;1251;1013593;-62
2023/11/16 08:55:40;;;;;;;47.50;37.70;;;;;;;-128.00;-1.00;-1.00;106915;1251;1012842;-61
2023/11/16 08:58:08;;;;;;;28.50;23.90;;;;;;;-128.00;-1.00;-1.00;106652;1253;1002411;-62
2023/11/16 09:00:41;;;;;;;28.10;22.80;;;;;;;-128.00;-1.00;-1.00;106968;1251;1010276;-61
2023/11/16 09:03:09;;;;;;;17.60;15.60;;;;;;;-128.00;-1.00;-1.00;106965;1251;1012991;-61
2023/11/16 09:05:37;;;;;;;6.30;5.80;;;;;;;-128.00;-1.00;-1.00;106806;1251;1002682;-59
2023/11/16 09:08:06;;;;;;;110.90;100.90;;;;;;;-128.00;-1.00;-1.00;106869;1253;1003509;-59
2023/11/16 09:10:34;;;;;;;;;;;;;;;-128.00;-1.00;-1.00;106634;1251;1012997;-60
2023/11/16 09:13:03;;;;;;;77.40;52.70;;;;;;;-128.00;-1.00;-1.00;106928;1251;1002185;-59
2023/11/16 09:15:30;;;;;;;20.30;16.00;;;;;;;-128.00;-1.00;-1.00;106917;1251;1010800;-61
2023/11/16 09:17:59;;;;;;;13.70;8.70;;;;;;;-128.00;-1.00;-1.00;106919;1256;1002197;-62
2023/11/16 09:20:28;;;;;;;16.20;11.20;;;;;;;-128.00;-1.00;-1.00;106980;1251;1012875;-57
2023/11/16 09:22:58;;;;;;;22.40;12.00;;;;;;;-128.00;-1.00;-1.00;106933;1251;1013312;-59
2023/11/16 09:25:29;;;;;;;11.20;6.90;;;;;;;-128.00;-1.00;-1.00;106967;1251;1010069;-59
2023/11/16 09:27:58;;;;;;;42.30;18.40;;;;;;;-128.00;-1.00;-1.00;106925;1256;1012460;-58
2023/11/16 09:30:27;;;;;;;116.10;93.70;;;;;;;-128.00;-1.00;-1.00;106961;1251;1013019;-58
2023/11/16 09:32:55;;;;;;;145.90;114.70;;;;;;;-128.00;-1.00;-1.00;106952;1251;1014306;-60
2023/11/16 09:35:23;;;;;;;46.40;27.50;;;;;;;-128.00;-1.00;-1.00;106975;1250;1002492;-61
2023/11/16 09:37:55;;;;;;;32.00;16.80;;;;;;;-128.00;-1.00;-1.00;107050;1251;1002866;-61
2023/11/16 09:40:30;;;;;;;12.90;11.60;;;;;;;-128.00;-1.00;-1.00;106564;1253;1013181;-62
2023/11/16 09:43:00;;;;;;;12.40;11.40;;;;;;;-128.00;-1.00;-1.00;106822;1253;1012483;-62
2023/11/16 09:45:27;;;;;;;6.50;6.00;;;;;;;-128.00;-1.00;-1.00;106871;1253;1012961;-62
2023/11/16 09:48:06;;;;;;;5.10;4.70;;;;;;;-128.00;-1.00;-1.00;106843;1253;1002971;-62
2023/11/16 09:50:41;;;;;;;5.00;4.60;;;;;;;-128.00;-1.00;-1.00;106945;1250;1009853;-63
2023/11/16 09:53:14;;;;;;;20.20;18.40;;;;;;;-128.00;-1.00;-1.00;106972;1251;1010807;-57
2023/11/16 09:55:44;;;;;;;16.10;14.80;;;;;;;-128.00;-1.00;-1.00;106712;1250;1015261;-60
2023/11/16 09:58:17;;;;;;;30.80;28.10;;;;;;;-128.00;-1.00;-1.00;106700;1257;1012297;-60
2023/11/16 10:00:48;;;;;;;49.30;35.80;;;;;;;-128.00;-1.00;-1.00;107019;1251;1013290;-61
2023/11/16 10:03:18;;;;;;;24.10;20.80;;;;;;;-128.00;-1.00;-1.00;106994;1251;1010235;-55
2023/11/16 10:05:46;;;;;;;13.50;12.10;;;;;;;-128.00;-1.00;-1.00;106960;1251;1010662;-62
2023/11/16 10:08:17;;;;;;;4.50;4.10;;;;;;;-128.00;-1.00;-1.00;106932;1255;1013936;-62
2023/11/16 10:10:55;;;;;;;9.60;8.30;;;;;;;-128.00;-1.00;-1.00;106766;1251;1004275;-61
2023/11/16 10:13:23;;;;;;;31.60;27.10;;;;;;;-128.00;-1.00;-1.00;106919;1250;1012720;-61
2023/11/16 10:15:52;;;;;;;21.00;19.10;;;;;;;-128.00;-1.00;-1.00;106988;1251;1010379;-61
2023/11/16 10:18:20;;;;;;;;;;;;;;;-128.00;-1.00;-1.00;106829;1254;1010392;-61
2023/11/16 10:20:48;;;;;;;8.30;7.70;;;;;;;-128.00;-1.00;-1.00;106434;1254;1002443;-62
2023/11/16 10:23:17;;;;;;;16.10;14.50;;;;;;;-128.00;-1.00;-1.00;106695;1254;1003932;-59
2023/11/16 10:25:48;;;;;;;15.60;14.00;;;;;;;-128.00;-1.00;-1.00;106714;1254;1013630;-59
2023/11/16 10:28:16;;;;;;;19.20;16.20;;;;;;;-128.00;-1.00;-1.00;106767;1254;1010541;-60
2023/11/16 10:30:46;;;;;;;9.20;8.20;;;;;;;-128.00;-1.00;-1.00;106707;1254;1011754;-60
2023/11/16 10:33:16;;;;;;;6.30;5.80;;;;;;;-128.00;-1.00;-1.00;106639;1254;1013964;-61
2023/11/16 10:35:47;;;;;;;4.20;3.90;;;;;;;-128.00;-1.00;-1.00;106726;1254;1012197;-59
2023/11/16 10:38:16;;;;;;;4.40;4.10;;;;;;;-128.00;-1.00;-1.00;106783;1254;1014671;-58
2023/11/16 10:40:47;;;;;;;4.60;4.20;;;;;;;-128.00;-1.00;-1.00;106927;1254;1009941;-58
2023/11/16 10:43:25;;;;;;;2.80;2.60;;;;;;;-128.00;-1.00;-1.00;106437;1257;1011470;-58
2023/11/16 10:45:59;;;;;;;5.70;5.20;;;;;;;-128.00;-1.00;-1.00;106460;1255;1012947;-58
2023/11/16 10:48:28;;;;;;;10.80;9.70;;;;;;;-128.00;-1.00;-1.00;106394;1258;1012048;-59
2023/11/16 10:50:58;;;;;;;13.10;6.50;;;;;;;-128.00;-1.00;-1.00;106555;1254;1012925;-58
2023/11/16 10:53:33;;;;;;;6.50;5.90;;;;;;;-128.00;-1.00;-1.00;106648;1254;1010938;-57
2023/11/16 10:56:01;;;;;;;15.40;14.00;;;;;;;-128.00;-1.00;-1.00;106613;1254;1013721;-59
2023/11/16 10:58:29;;;;;;;65.00;59.00;;;;;;;-128.00;-1.00;-1.00;106380;1256;1002993;-58
2023/11/16 11:00:57;;;;;;;41.60;37.80;;;;;;;-128.00;-1.00;-1.00;106336;1256;1002436;-57
2023/11/16 11:03:25;;;;;;;9.00;8.40;;;;;;;-128.00;-1.00;-1.00;106290;1256;1013356;-57
2023/11/16 11:05:52;;;;;;;22.40;16.60;;;;;;;-128.00;-1.00;-1.00;106432;1256;1002679;-57
2023/11/16 11:08:21;;;;;;;6.90;6.30;;;;;;;-128.00;-1.00;-1.00;106359;1256;1002470;-57
2023/11/16 11:10:49;;;;;;;;;;;;;;;-128.00;-1.00;-1.00;106426;1256;1012834;-58
2023/11/16 11:13:26;;;;;;;9.40;6.60;;;;;;;-128.00;-1.00;-1.00;106411;1256;1002132;-57
2023/11/16 11:16:02;;;;;;;5.00;4.60;;;;;;;-128.00;-1.00;-1.00;106462;1257;1012874;-58
2023/11/16 11:18:31;;;;;;;13.80;12.60;;;;;;;-128.00;-1.00;-1.00;106399;1257;1010170;-57